createdAt,value
2022-10-01T00:01:25.090Z,29.08
2022-10-01T00:03:53.357Z,36.13
2022-10-01T00:06:22.505Z,30.92
2022-10-01T00:08:50.971Z,29.30
2022-10-01T00:13:55.843Z,32.05
2022-10-01T00:16:25.781Z,37.60
2022-10-01T00:18:54.275Z,35.92
2022-10-01T00:21:25.250Z,40.58
2022-10-01T00:23:58.360Z,39.55
2022-10-01T00:26:29.278Z,38.58
2022-10-01T00:29:01.554Z,35.88
2022-10-01T00:31:30.267Z,32.47
2022-10-01T00:33:59.594Z,31.77
2022-10-01T00:36:28.039Z,32.08
2022-10-01T00:39:00.992Z,32.30
2022-10-01T00:41:31.513Z,29.20
2022-10-01T00:44:01.715Z,35.08
2022-10-01T00:46:39.339Z,31.38
2022-10-01T00:49:14.695Z,32.38
2022-10-01T00:51:47.179Z,38.63
2022-10-01T00:54:19.829Z,35.67
2022-10-01T00:56:47.894Z,34.53
2022-10-01T00:59:16.669Z,30.55
2022-10-01T01:01:44.765Z,59.92
2022-10-01T01:04:19.551Z,29.60
2022-10-01T01:06:56.060Z,38.53
2022-10-01T01:09:30.780Z,31.45
2022-10-01T01:12:37.686Z,29.52
2022-10-01T01:18:03.454Z,34.28
2022-10-01T01:29:18.552Z,42.63
2022-10-01T01:31:47.414Z,39.53
2022-10-01T01:34:22.044Z,37.05
2022-10-01T01:36:58.897Z,37.60
2022-10-01T01:39:30.087Z,41.47
2022-10-01T01:42:03.039Z,54.65
2022-10-01T01:44:35.887Z,39.60
2022-10-01T01:47:07.686Z,42.75
2022-10-01T01:49:36.126Z,41.55
2022-10-01T01:52:09.836Z,36.08
2022-10-01T01:54:37.146Z,43.83
2022-10-01T01:57:05.434Z,41.00
2022-10-01T01:59:34.161Z,37.90
2022-10-01T02:02:01.758Z,48.25
2022-10-01T02:04:55.198Z,39.70
2022-10-01T02:10:23.210Z,39.47
2022-10-01T02:26:38.613Z,39.88
2022-10-01T02:29:15.581Z,46.53
2022-10-01T02:31:42.950Z,32.45
2022-10-01T02:34:12.845Z,34.22
2022-10-01T02:36:42.404Z,34.72
2022-10-01T02:39:11.092Z,35.50
2022-10-01T02:41:38.382Z,34.78
2022-10-01T02:44:11.974Z,35.92
2022-10-01T02:47:04.753Z,27.02
2022-10-01T02:49:32.358Z,34.33
2022-10-01T02:52:25.011Z,35.25
2022-10-01T02:55:15.316Z,36.33
2022-10-01T02:57:43.154Z,34.58
2022-10-01T03:00:15.569Z,35.95
2022-10-01T03:02:43.022Z,35.63
2022-10-01T03:05:10.471Z,31.00
2022-10-01T03:07:38.355Z,38.10
2022-10-01T03:10:07.719Z,31.88
2022-10-01T03:12:36.114Z,30.35
2022-10-01T03:15:04.240Z,30.73
2022-10-01T03:17:31.544Z,30.55
2022-10-01T03:19:58.876Z,29.20
2022-10-01T03:22:26.301Z,32.08
2022-10-01T03:24:54.352Z,32.90
2022-10-01T03:27:22.730Z,32.55
2022-10-01T03:29:50.665Z,38.22
2022-10-01T03:32:18.882Z,31.92
2022-10-01T03:34:46.654Z,26.85
2022-10-01T03:37:13.929Z,28.60
2022-10-01T03:39:41.228Z,31.52
2022-10-01T03:42:08.872Z,28.08
2022-10-01T03:44:36.166Z,28.08
2022-10-01T03:47:03.432Z,30.48
2022-10-01T03:49:30.785Z,29.80
2022-10-01T03:51:58.156Z,28.60
2022-10-01T03:54:25.771Z,26.55
2022-10-01T03:56:53.029Z,25.52
2022-10-01T03:59:20.586Z,27.48
2022-10-01T04:01:48.273Z,24.60
2022-10-01T04:04:15.683Z,25.58
2022-10-01T04:06:43.054Z,24.00
2022-10-01T04:09:10.381Z,20.75
2022-10-01T04:11:38.112Z,24.02
2022-10-01T04:14:06.010Z,21.85
2022-10-01T04:16:36.599Z,22.60
2022-10-01T04:19:05.157Z,20.83
2022-10-01T04:21:32.898Z,22.85
2022-10-01T04:24:01.365Z,21.20
2022-10-01T04:26:28.843Z,22.25
2022-10-01T04:28:56.510Z,24.73
2022-10-01T04:31:25.148Z,21.58
2022-10-01T04:33:54.176Z,21.95
2022-10-01T04:36:21.978Z,26.02
2022-10-01T04:38:56.627Z,26.13
2022-10-01T04:41:27.030Z,24.67
2022-10-01T04:43:54.315Z,26.70
2022-10-01T04:46:21.718Z,22.55
2022-10-01T04:48:54.638Z,22.88
2022-10-01T04:51:22.451Z,26.92
2022-10-01T04:53:51.910Z,27.25
2022-10-01T04:56:24.640Z,25.40
2022-10-01T04:58:54.955Z,25.77
2022-10-01T05:01:22.446Z,25.58
2022-10-01T05:03:49.934Z,28.88
2022-10-01T05:06:17.377Z,28.05
2022-10-01T05:08:45.343Z,26.33
2022-10-01T05:11:12.926Z,26.48
2022-10-01T05:13:40.414Z,29.13
2022-10-01T05:16:08.336Z,26.08
2022-10-01T05:18:35.931Z,23.98
2022-10-01T05:21:07.304Z,26.63
2022-10-01T05:26:04.529Z,27.65
2022-10-01T05:28:33.029Z,21.35
2022-10-01T05:31:02.987Z,24.17
2022-10-01T05:33:31.443Z,30.40
2022-10-01T05:35:59.174Z,24.83
2022-10-01T05:38:26.726Z,26.05
2022-10-01T05:40:54.137Z,27.33
2022-10-01T05:43:21.639Z,30.50
2022-10-01T05:45:50.017Z,25.65
2022-10-01T05:48:17.555Z,25.13
2022-10-01T05:50:45.311Z,21.13
2022-10-01T05:53:14.248Z,22.45
2022-10-01T05:55:41.815Z,25.02
2022-10-01T05:58:11.556Z,23.10
2022-10-01T06:00:41.075Z,23.17
2022-10-01T06:03:09.323Z,21.00
2022-10-01T06:05:37.150Z,24.05
2022-10-01T06:08:07.804Z,20.73
2022-10-01T06:10:37.153Z,22.90
2022-10-01T06:13:05.919Z,24.75
2022-10-01T06:15:37.971Z,22.98
2022-10-01T06:18:07.571Z,21.92
2022-10-01T06:20:35.681Z,19.92
2022-10-01T06:23:06.053Z,27.63
2022-10-01T06:25:36.711Z,21.33
2022-10-01T06:28:06.230Z,26.27
2022-10-01T06:30:36.948Z,27.92
2022-10-01T06:33:07.473Z,29.50
2022-10-01T06:35:39.836Z,27.70
2022-10-01T06:38:08.381Z,30.42
2022-10-01T06:40:35.957Z,30.90
2022-10-01T06:43:04.068Z,22.77
2022-10-01T06:45:31.876Z,33.22
2022-10-01T06:48:03.383Z,33.60
2022-10-01T06:50:32.446Z,29.85
2022-10-01T06:53:00.944Z,32.85
2022-10-01T06:55:31.747Z,37.90
2022-10-01T06:58:01.741Z,35.63
2022-10-01T07:00:31.495Z,42.90
2022-10-01T07:02:59.915Z,39.78
2022-10-01T07:05:28.331Z,37.17
2022-10-01T07:07:55.797Z,45.38
2022-10-01T07:10:23.560Z,41.13
2022-10-01T07:12:51.165Z,38.78
2022-10-01T07:15:21.500Z,49.95
2022-10-01T07:17:51.184Z,48.55
2022-10-01T07:20:20.950Z,56.78
2022-10-01T07:22:49.273Z,51.53
2022-10-01T07:25:17.530Z,57.63
2022-10-01T07:27:45.162Z,60.53
2022-10-01T07:30:12.843Z,57.22
2022-10-01T07:32:43.423Z,56.15
2022-10-01T07:35:11.627Z,53.90
2022-10-01T07:37:39.036Z,62.08
2022-10-01T07:40:12.044Z,49.25
2022-10-01T07:42:39.516Z,52.50
2022-10-01T07:45:07.667Z,55.45
2022-10-01T07:47:35.379Z,57.03
2022-10-01T07:50:03.461Z,59.28
2022-10-01T07:52:31.527Z,59.88
2022-10-01T07:54:58.962Z,49.22
2022-10-01T07:57:26.441Z,51.63
2022-10-01T07:59:56.018Z,58.83
2022-10-01T08:02:24.735Z,57.03
2022-10-01T08:05:12.000Z,51.17
2022-10-01T08:07:39.403Z,42.13
2022-10-01T08:10:07.220Z,45.47
2022-10-01T08:12:34.844Z,46.78
2022-10-01T08:15:03.303Z,50.35
2022-10-01T08:17:30.971Z,45.33
2022-10-01T08:19:58.423Z,47.00
2022-10-01T08:22:25.875Z,48.90
2022-10-01T08:24:53.521Z,44.60
2022-10-01T08:27:20.968Z,47.30
2022-10-01T08:29:48.555Z,42.42
2022-10-01T08:32:17.176Z,43.97
2022-10-01T08:34:45.400Z,45.45
2022-10-01T08:37:13.277Z,42.70
2022-10-01T08:39:40.764Z,39.88
2022-10-01T08:42:41.878Z,38.42
2022-10-01T08:45:18.050Z,41.38
2022-10-01T08:47:56.327Z,35.97
2022-10-01T08:50:39.233Z,39.58
2022-10-01T08:53:15.717Z,39.13
2022-10-01T08:55:44.597Z,36.85
2022-10-01T08:58:20.140Z,35.53
2022-10-01T09:00:50.132Z,35.55
2022-10-01T09:03:19.289Z,31.98
2022-10-01T09:08:47.597Z,34.17
2022-10-01T09:11:25.200Z,29.77
2022-10-01T09:14:19.686Z,31.95
2022-10-01T09:17:04.682Z,28.52
2022-10-01T09:19:59.248Z,33.88
2022-10-01T09:25:29.270Z,28.73
2022-10-01T09:28:03.143Z,32.80
2022-10-01T09:30:32.228Z,29.60
2022-10-01T09:33:12.164Z,33.47
2022-10-01T09:40:59.061Z,29.27
2022-10-01T09:43:31.389Z,28.38
2022-10-01T09:45:59.409Z,25.85
2022-10-01T09:48:38.091Z,31.70
2022-10-01T09:56:38.008Z,30.33
2022-10-01T09:59:12.029Z,31.83
2022-10-01T10:04:23.901Z,29.58
2022-10-01T10:06:53.691Z,33.92
2022-10-01T10:09:28.565Z,29.15
2022-10-01T10:11:58.360Z,27.85
2022-10-01T10:14:59.676Z,27.48
2022-10-01T10:17:28.138Z,29.83
2022-10-01T10:19:55.842Z,28.80
2022-10-01T10:22:27.464Z,26.85
2022-10-01T10:24:59.282Z,29.55
2022-10-01T10:27:30.499Z,31.73
2022-10-01T10:30:14.718Z,28.08
2022-10-01T10:32:45.966Z,27.75
2022-10-01T10:35:20.851Z,29.30
2022-10-01T10:37:51.910Z,27.30
2022-10-01T10:40:29.081Z,27.17
2022-10-01T10:42:59.129Z,30.75
2022-10-01T10:45:33.999Z,35.15
2022-10-01T10:48:04.883Z,26.15
2022-10-01T10:50:37.014Z,31.02
2022-10-01T10:53:22.732Z,32.08
2022-10-01T10:56:08.001Z,30.48
2022-10-01T10:58:42.658Z,34.53
2022-10-01T11:01:16.550Z,31.05
2022-10-01T11:03:53.553Z,28.35
2022-10-01T11:06:21.104Z,31.73
2022-10-01T11:08:57.901Z,32.60
2022-10-01T11:14:45.207Z,29.50
2022-10-01T11:28:40.647Z,28.50
2022-10-01T11:34:10.650Z,22.92
2022-10-01T11:39:19.218Z,25.33
2022-10-01T11:47:21.118Z,23.98
2022-10-01T11:55:39.127Z,21.83
2022-10-01T12:01:01.675Z,21.88
2022-10-01T12:03:43.751Z,20.25
2022-10-01T12:06:15.287Z,20.02
2022-10-01T12:08:53.471Z,20.73
2022-10-01T12:11:30.227Z,19.50
2022-10-01T12:14:03.990Z,19.70
2022-10-01T12:16:45.101Z,19.40
2022-10-01T12:21:56.972Z,20.88
2022-10-01T12:24:31.162Z,19.55
2022-10-01T12:27:28.065Z,20.00
2022-10-01T12:30:05.281Z,19.60
2022-10-01T12:35:57.483Z,18.77
2022-10-01T12:49:49.654Z,17.05
2022-10-01T13:00:50.915Z,17.30
2022-10-01T13:12:12.421Z,19.58
2022-10-01T13:14:44.814Z,14.57
2022-10-01T13:20:20.148Z,14.88
2022-10-01T13:23:18.958Z,49.88
2022-10-01T13:32:00.690Z,12.18
2022-10-01T13:37:32.217Z,12.15
2022-10-01T13:40:00.635Z,11.95
2022-10-01T13:45:08.159Z,22.63
2022-10-01T13:47:41.261Z,13.35
2022-10-01T13:50:22.425Z,16.83
2022-10-01T13:52:51.068Z,55.53
2022-10-01T13:55:29.352Z,23.38
2022-10-01T13:58:07.616Z,16.67
2022-10-01T14:00:35.188Z,62.67
2022-10-01T14:03:42.456Z,293.00
2022-10-01T14:06:18.918Z,99.35
2022-10-01T14:11:49.014Z,84.25
2022-10-01T14:17:13.479Z,24.70
2022-10-01T14:19:47.519Z,15.85
2022-10-01T14:22:41.614Z,14.45
2022-10-01T14:25:36.603Z,9.77
2022-10-01T14:30:56.134Z,12.00
2022-10-01T14:36:44.508Z,10.30
2022-10-01T14:41:55.847Z,10.55
2022-10-01T14:47:11.755Z,8.15
2022-10-01T14:49:39.270Z,10.18
2022-10-01T14:52:19.143Z,8.88
2022-10-01T14:54:51.912Z,9.68
2022-10-01T15:00:11.661Z,10.55
2022-10-01T15:05:39.928Z,9.50
2022-10-01T15:08:39.879Z,7.80
2022-10-01T15:11:12.642Z,10.40
2022-10-01T15:13:43.558Z,9.35
2022-10-01T15:16:16.886Z,9.52
2022-10-01T15:18:49.616Z,7.65
2022-10-01T15:21:23.410Z,8.50
2022-10-01T15:23:51.557Z,10.40
2022-10-01T15:26:29.795Z,9.48
2022-10-01T15:29:12.717Z,7.78
2022-10-01T15:31:49.943Z,9.98
2022-10-01T15:34:21.526Z,11.27
2022-10-01T15:36:51.038Z,8.18
2022-10-01T15:42:03.353Z,7.88
2022-10-01T15:44:50.865Z,9.50
2022-10-01T15:58:32.168Z,8.20
2022-10-01T16:01:05.442Z,9.48
2022-10-01T16:06:35.441Z,8.65
2022-10-01T16:12:04.323Z,11.00
2022-10-01T16:14:59.910Z,10.18
2022-10-01T16:17:30.149Z,9.80
2022-10-01T16:20:01.673Z,9.82
2022-10-01T16:22:35.632Z,9.57
2022-10-01T16:30:27.271Z,9.35
2022-10-01T16:32:55.919Z,9.75
2022-10-01T16:35:25.821Z,10.93
2022-10-01T16:37:56.304Z,11.07
2022-10-01T16:40:26.558Z,16.52
2022-10-01T16:42:54.843Z,11.77
2022-10-01T16:45:25.043Z,11.80
2022-10-01T16:47:53.821Z,12.88
2022-10-01T16:50:22.264Z,10.48
2022-10-01T16:52:54.692Z,11.07
2022-10-01T16:55:30.020Z,9.23
2022-10-01T16:57:57.353Z,9.70
2022-10-01T17:00:26.889Z,13.77
2022-10-01T17:02:56.524Z,10.38
2022-10-01T17:05:27.892Z,9.25
2022-10-01T17:08:01.164Z,9.63
2022-10-01T17:10:32.259Z,10.38
2022-10-01T17:12:59.933Z,9.60
2022-10-01T17:15:28.320Z,10.40
2022-10-01T17:17:57.454Z,10.02
2022-10-01T17:20:28.757Z,8.65
2022-10-01T17:22:58.057Z,10.13
2022-10-01T17:25:32.325Z,11.00
2022-10-01T17:28:01.400Z,9.63
2022-10-01T17:30:30.228Z,9.57
2022-10-01T17:33:00.243Z,8.80
2022-10-01T17:35:30.031Z,11.07
2022-10-01T17:37:58.590Z,10.32
2022-10-01T17:40:30.167Z,8.52
2022-10-01T17:42:59.620Z,9.00
2022-10-01T17:45:27.012Z,12.48
2022-10-01T17:47:54.907Z,9.90
2022-10-01T17:50:22.692Z,10.82
2022-10-01T17:52:50.684Z,11.60
2022-10-01T17:55:20.113Z,12.23
2022-10-01T17:57:47.545Z,10.68
2022-10-01T18:00:17.351Z,13.63
2022-10-01T18:02:45.798Z,14.10
2022-10-01T18:05:17.151Z,14.93
2022-10-01T18:07:45.895Z,13.82
2022-10-01T18:10:13.796Z,14.38
2022-10-01T18:12:41.563Z,14.20
2022-10-01T18:15:09.992Z,14.98
2022-10-01T18:20:26.244Z,13.65
2022-10-01T18:22:53.746Z,17.08
2022-10-01T18:25:21.200Z,16.58
2022-10-01T18:27:50.428Z,22.17
2022-10-01T18:30:18.689Z,18.90
2022-10-01T18:32:51.514Z,22.17
2022-10-01T18:35:22.263Z,21.45
2022-10-01T18:37:55.032Z,20.63
2022-10-01T18:40:29.964Z,24.65
2022-10-01T18:43:07.810Z,22.60
2022-10-01T18:46:03.836Z,23.90
2022-10-01T18:52:15.946Z,30.45
2022-10-01T18:57:42.370Z,25.05
2022-10-01T19:00:16.748Z,28.35
2022-10-01T19:08:52.069Z,29.08
2022-10-01T19:14:39.912Z,25.92
2022-10-01T19:17:34.100Z,30.95
2022-10-01T19:20:29.549Z,32.22
2022-10-01T19:26:28.800Z,31.63
2022-10-01T19:37:30.249Z,38.17
2022-10-01T19:40:05.665Z,37.55
2022-10-01T19:42:38.637Z,34.88
2022-10-01T19:45:21.705Z,34.45
2022-10-01T19:50:34.048Z,35.38
2022-10-01T19:53:03.741Z,40.47
2022-10-01T19:55:39.513Z,39.65
2022-10-01T19:58:18.060Z,39.72
2022-10-01T20:00:51.211Z,39.83
2022-10-01T20:03:39.655Z,41.67
2022-10-01T20:08:55.957Z,41.22
2022-10-01T20:16:45.522Z,43.90
2022-10-01T20:19:42.600Z,37.97
2022-10-01T20:22:45.749Z,37.58
2022-10-01T20:25:24.741Z,42.13
2022-10-01T20:30:39.631Z,49.33
2022-10-01T20:36:13.710Z,36.97
2022-10-01T20:39:05.706Z,33.85
2022-10-01T20:41:44.344Z,36.17
2022-10-01T20:44:17.649Z,39.85
2022-10-01T20:54:44.889Z,35.80
2022-10-01T20:59:54.828Z,39.97
2022-10-01T21:08:02.360Z,39.13
2022-10-01T21:10:42.771Z,37.45
2022-10-01T21:16:15.205Z,35.72
2022-10-01T21:24:39.268Z,30.65
2022-10-01T21:38:28.375Z,30.15
2022-10-01T21:46:40.381Z,27.05
2022-10-01T21:49:45.747Z,22.10
2022-10-01T21:55:20.020Z,19.00
2022-10-01T21:58:17.070Z,17.70
2022-10-01T22:01:11.452Z,16.50
2022-10-01T22:03:48.560Z,18.17
2022-10-01T22:06:27.282Z,17.27
2022-10-01T22:09:06.384Z,15.10
2022-10-01T22:11:38.801Z,15.73
2022-10-01T22:14:16.798Z,16.67
2022-10-01T22:19:49.115Z,16.35
2022-10-01T22:22:30.451Z,14.30
2022-10-01T22:25:00.257Z,14.05
2022-10-01T22:30:13.880Z,13.65
2022-10-01T22:38:16.838Z,15.38
2022-10-01T22:40:49.867Z,15.02
2022-10-01T22:43:17.333Z,14.32
2022-10-01T22:46:20.374Z,16.50
2022-10-01T22:52:02.870Z,14.68
2022-10-01T22:55:03.023Z,12.40
2022-10-01T23:00:15.908Z,15.48
2022-10-01T23:08:27.186Z,12.32
2022-10-01T23:11:34.090Z,11.70
2022-10-01T23:25:18.192Z,13.63
2022-10-01T23:30:24.139Z,10.25
2022-10-01T23:41:19.616Z,10.95
2022-10-01T23:43:49.534Z,11.90
2022-10-01T23:46:22.871Z,12.35
2022-10-01T23:49:02.357Z,10.05
2022-10-01T23:51:40.148Z,10.57
2022-10-01T23:54:38.808Z,10.70
2022-10-01T23:57:18.468Z,10.15
